Time;durP1;ratioP1;P1;durP2;ratioP2;P2;SDS_P1;SDS_P2;PMS_P1;PMS_P2;Temp;Humidity;BMP_temperature;BMP_pressure;BME280_temperature;BME280_humidity;BME280_pressure;Samples;Min_cycle;Max_cycle;Signal;HPM_P1;HPM_P2
2023/04/13 00:00:20;;;;;;;5.40;4.13;;;;;;;2.72;100.00;99181.19;4983232;28;20236;-75
2023/04/13 00:02:52;;;;;;;6.07;3.23;;;;;;;2.62;100.00;99173.97;5003927;28;20200;-74
2023/04/13 00:05:19;;;;;;;4.57;3.10;;;;;;;2.61;100.00;99180.06;5003414;28;20307;-74
2023/04/13 00:07:47;;;;;;;6.43;3.27;;;;;;;2.55;100.00;99185.13;5005298;28;20203;-75
2023/04/13 00:10:14;;;;;;;5.37;3.43;;;;;;;2.62;100.00;99181.81;5002347;28;20208;-75
2023/04/13 00:12:41;;;;;;;4.57;2.80;;;;;;;2.64;100.00;99185.34;5002197;28;20223;-74
2023/04/13 00:15:08;;;;;;;4.27;2.73;;;;;;;2.56;100.00;99181.66;5000750;28;20641;-73
2023/04/13 00:17:36;;;;;;;4.53;2.90;;;;;;;2.60;100.00;99175.66;5001850;28;20198;-74
2023/04/13 00:20:09;;;;;;;5.13;2.70;;;;;;;2.55;100.00;99170.34;5005068;28;20217;-72
2023/04/13 00:22:36;;;;;;;3.70;2.53;;;;;;;2.75;100.00;99176.94;5003507;28;20701;-74
2023/04/13 00:25:02;;;;;;;4.30;2.90;;;;;;;2.60;100.00;99173.06;5002290;28;20255;-75
2023/04/13 00:27:29;;;;;;;5.93;2.57;;;;;;;2.53;100.00;99166.81;5000548;28;20287;-74
2023/04/13 00:29:55;;;;;;;5.30;3.30;;;;;;;2.54;100.00;99170.28;5003047;28;20231;-74
2023/04/13 00:32:23;;;;;;;4.63;2.97;;;;;;;2.43;100.00;99164.81;5002598;28;20856;-74
2023/04/13 00:34:50;;;;;;;5.40;3.03;;;;;;;2.34;100.00;99168.03;5003607;28;20223;-74
2023/04/13 00:37:18;;;;;;;5.07;2.73;;;;;;;2.53;100.00;99174.63;5000075;28;20192;-76
2023/04/13 00:39:45;;;;;;;4.83;3.00;;;;;;;2.70;100.00;99173.31;5004178;28;20256;-74
2023/04/13 00:42:12;;;;;;;4.83;3.27;;;;;;;2.54;100.00;99162.47;5003503;28;20204;-74
2023/04/13 00:44:39;;;;;;;4.90;3.47;;;;;;;2.46;100.00;99165.75;5003035;28;20220;-74
2023/04/13 00:47:06;;;;;;;5.87;3.03;;;;;;;2.50;100.00;99158.88;5003283;28;20196;-75
2023/04/13 00:49:33;;;;;;;7.33;3.40;;;;;;;2.64;100.00;99160.09;5003899;28;20225;-74
2023/04/13 00:52:03;;;;;;;5.20;2.97;;;;;;;2.76;100.00;99163.00;5006463;28;20200;-74
2023/04/13 00:54:31;;;;;;;4.30;3.03;;;;;;;2.90;100.00;99163.38;5002182;28;20255;-75
2023/04/13 00:56:59;;;;;;;4.37;2.80;;;;;;;3.21;100.00;99159.75;5003035;28;20200;-74
2023/04/13 00:59:27;;;;;;;4.60;3.20;;;;;;;3.34;100.00;99156.53;5002076;28;20305;-74
2023/04/13 01:01:57;;;;;;;6.30;3.67;;;;;;;3.30;100.00;99161.69;5001531;28;20236;-75
2023/04/13 01:04:29;;;;;;;4.83;2.53;;;;;;;3.25;100.00;99156.34;5002099;28;20322;-75
2023/04/13 01:07:15;;;;;;;4.73;2.53;;;;;;;3.15;100.00;99167.41;5002577;28;20237;-74
2023/04/13 01:09:52;;;;;;;2.90;2.37;;;;;;;2.92;100.00;99150.31;4983644;28;20232;-75
2023/04/13 01:12:40;;;;;;;3.33;2.37;;;;;;;2.77;100.00;99156.94;4999557;28;20240;-75
2023/04/13 01:15:11;;;;;;;5.13;2.50;;;;;;;2.86;100.00;99165.88;5003207;28;20247;-76
2023/04/13 01:17:40;;;;;;;5.47;2.67;;;;;;;2.74;100.00;99167.31;5001847;28;20213;-74
2023/04/13 01:20:12;;;;;;;3.80;2.50;;;;;;;2.63;100.00;99160.94;4996551;28;20264;-75
2023/04/13 01:22:44;;;;;;;3.17;2.30;;;;;;;2.48;100.00;99156.22;4983904;28;20204;-75
2023/04/13 01:25:49;;;;;;;6.17;2.70;;;;;;;2.34;100.00;99151.47;5002980;28;20227;-75
2023/04/13 01:28:18;;;;;;;4.53;2.80;;;;;;;2.33;100.00;99158.44;4982543;28;20238;-75
2023/04/13 01:30:46;;;;;;;4.27;2.80;;;;;;;2.38;100.00;99158.53;5003276;28;20580;-76
2023/04/13 01:33:13;;;;;;;3.73;2.27;;;;;;;2.44;100.00;99157.00;4998220;28;20204;-76
2023/04/13 01:35:40;;;;;;;4.53;2.50;;;;;;;2.49;100.00;99157.13;5001333;28;20202;-75
2023/04/13 01:38:07;;;;;;;5.63;2.30;;;;;;;2.46;100.00;99157.03;4999335;28;20246;-75
2023/04/13 01:40:40;;;;;;;3.00;2.00;;;;;;;2.35;100.00;99150.63;5000833;28;20566;-75
2023/04/13 01:43:07;;;;;;;3.20;2.27;;;;;;;2.33;100.00;99149.72;4985494;28;20218;-75
2023/04/13 01:45:59;;;;;;;3.00;2.27;;;;;;;2.27;100.00;99158.28;5001049;28;20238;-75
2023/04/13 01:48:32;;;;;;;4.53;2.20;;;;;;;2.46;100.00;99164.88;5001057;28;20577;-74
2023/04/13 01:51:16;;;;;;;4.03;2.40;;;;;;;2.26;100.00;99137.34;5000068;28;20602;-76
2023/04/13 01:53:50;;;;;;;5.40;2.40;;;;;;;2.34;100.00;99144.53;5000968;28;20311;-78
2023/04/13 01:56:18;;;;;;;4.10;2.37;;;;;;;2.34;100.00;99157.59;5000640;28;20633;-74
2023/04/13 01:58:48;;;;;;;3.43;2.67;;;;;;;2.32;100.00;99155.78;5004367;28;20652;-74
2023/04/13 02:01:17;;;;;;;4.33;2.40;;;;;;;2.39;100.00;99155.09;4997530;28;20584;-75
2023/04/13 02:03:44;;;;;;;3.67;2.10;;;;;;;2.40;100.00;99142.09;4982526;28;20228;-75
2023/04/13 02:06:10;;;;;;;5.07;2.30;;;;;;;2.42;100.00;99135.19;4982867;28;20207;-74
2023/04/13 02:08:37;;;;;;;3.23;2.03;;;;;;;2.73;100.00;99156.81;5001025;28;20205;-75
2023/04/13 02:11:03;;;;;;;6.73;2.10;;;;;;;3.02;100.00;99153.19;4988677;28;20220;-75
2023/04/13 02:13:30;;;;;;;2.90;2.07;;;;;;;3.24;100.00;99158.94;5004279;28;20772;-76
2023/04/13 02:15:57;;;;;;;4.70;2.10;;;;;;;3.36;100.00;99162.69;5007108;28;20578;-75
2023/04/13 02:18:24;;;;;;;6.73;2.43;;;;;;;3.54;100.00;99164.81;5005088;28;20413;-74
2023/04/13 02:21:00;;;;;;;4.33;2.30;;;;;;;3.65;100.00;99167.69;5007127;28;20217;-74
2023/04/13 02:23:27;;;;;;;4.23;2.20;;;;;;;3.70;100.00;99166.03;5003550;28;24232;-75
2023/04/13 02:25:54;;;;;;;5.60;2.10;;;;;;;3.86;100.00;99167.22;5005404;28;20204;-75
2023/04/13 02:28:20;;;;;;;3.57;1.93;;;;;;;3.90;100.00;99162.06;5003894;28;20226;-76
2023/04/13 02:30:47;;;;;;;5.60;2.20;;;;;;;3.99;100.00;99170.09;5005060;28;20192;-75
2023/04/13 02:33:13;;;;;;;5.80;1.80;;;;;;;4.12;100.00;99167.75;5005109;28;20590;-75
2023/04/13 02:35:40;;;;;;;4.60;1.43;;;;;;;4.09;100.00;99164.22;5004579;28;20204;-74
2023/04/13 02:38:08;;;;;;;4.43;1.60;;;;;;;4.17;100.00;99169.59;5006899;28;20227;-74
2023/04/13 02:40:35;;;;;;;3.87;1.90;;;;;;;4.15;100.00;99166.06;5003296;28;20704;-75
2023/04/13 02:43:01;;;;;;;5.20;2.17;;;;;;;4.14;100.00;99158.19;5008209;28;20215;-77
2023/04/13 02:45:28;;;;;;;5.50;1.47;;;;;;;4.21;100.00;99155.69;5002377;28;20238;-74
2023/04/13 02:47:55;;;;;;;9.20;2.10;;;;;;;4.23;100.00;99151.38;5003662;28;20213;-78
2023/04/13 02:50:21;;;;;;;9.50;2.10;;;;;;;4.25;100.00;99147.03;5003092;28;20194;-76
2023/04/13 02:52:48;;;;;;;6.63;1.97;;;;;;;4.33;100.00;99153.28;5006094;28;20231;-75
2023/04/13 02:55:15;;;;;;;6.63;1.60;;;;;;;4.38;100.00;99150.75;5005978;28;20246;-75
2023/04/13 02:57:42;;;;;;;5.73;1.60;;;;;;;4.43;100.00;99154.38;5003995;28;20203;-75
2023/04/13 03:00:09;;;;;;;4.10;1.50;;;;;;;4.51;100.00;99150.13;5004999;28;20581;-75
2023/04/13 03:02:41;;;;;;;7.17;1.50;;;;;;;4.55;100.00;99141.47;5004131;28;20263;-74
2023/04/13 03:05:08;;;;;;;2.03;1.20;;;;;;;4.65;100.00;99151.25;5049072;23;20230;-73
2023/04/13 03:07:35;;;;;;;6.30;1.77;;;;;;;4.75;100.00;99146.16;5036330;28;20649;-74
2023/04/13 03:10:05;;;;;;;3.17;1.43;;;;;;;4.69;100.00;99146.94;5018700;28;20210;-74
2023/04/13 03:12:31;;;;;;;4.47;1.40;;;;;;;4.82;100.00;99148.03;5037054;28;20195;-75
2023/04/13 03:15:03;;;;;;;3.60;1.50;;;;;;;4.78;100.00;99141.81;5039723;28;20211;-75
2023/04/13 03:17:30;;;;;;;5.63;1.70;;;;;;;4.79;100.00;99143.59;5038171;28;20226;-75
2023/04/13 03:19:58;;;;;;;4.63;1.40;;;;;;;4.84;100.00;99149.81;5040753;28;20203;-75
2023/04/13 03:22:29;;;;;;;3.43;1.40;;;;;;;4.90;100.00;99149.03;5023544;28;20253;-74
2023/04/13 03:24:55;;;;;;;5.47;1.70;;;;;;;4.93;100.00;99152.59;5041212;28;20234;-75
2023/04/13 03:27:22;;;;;;;2.60;1.10;;;;;;;4.99;100.00;99152.69;5035950;28;20617;-75
2023/04/13 03:29:48;;;;;;;5.70;1.27;;;;;;;5.04;100.00;99156.25;5026581;28;20667;-75
2023/04/13 03:32:14;;;;;;;1.77;1.20;;;;;;;5.04;100.00;99161.50;5020437;28;20239;-74
2023/04/13 03:34:42;;;;;;;3.00;1.30;;;;;;;5.13;100.00;99152.88;5040772;28;20221;-74
2023/04/13 03:37:10;;;;;;;6.30;1.53;;;;;;;5.18;100.00;99145.94;5024504;28;20205;-74
2023/04/13 03:39:38;;;;;;;3.07;1.47;;;;;;;5.22;100.00;99152.16;5035887;28;20196;-74
2023/04/13 03:42:04;;;;;;;2.20;1.17;;;;;;;5.22;100.00;99150.41;5036650;28;20569;-74
2023/04/13 03:44:31;;;;;;;3.47;1.30;;;;;;;5.34;100.00;99145.34;5039266;28;20306;-75
2023/04/13 03:46:58;;;;;;;2.83;1.07;;;;;;;5.32;100.00;99143.56;5039908;28;20206;-74
2023/04/13 03:49:24;;;;;;;5.00;1.23;;;;;;;5.38;100.00;99145.38;5050584;28;20196;-74
2023/04/13 03:51:51;;;;;;;2.93;1.10;;;;;;;5.38;100.00;99143.63;5054806;28;20257;-75
2023/04/13 03:54:17;;;;;;;3.17;1.20;;;;;;;5.47;100.00;99137.63;5033166;28;20250;-75
2023/04/13 03:56:44;;;;;;;3.97;1.40;;;;;;;5.48;100.00;99129.75;5051956;28;20666;-75
2023/04/13 03:59:10;;;;;;;3.70;1.20;;;;;;;5.57;100.00;99129.88;5056379;28;20225;-75
2023/04/13 04:01:37;;;;;;;2.33;1.50;;;;;;;5.61;100.00;99136.06;5039540;28;20239;-75
2023/04/13 04:04:03;;;;;;;5.13;1.13;;;;;;;5.63;100.00;99143.09;5053234;28;20222;-75
2023/04/13 04:06:30;;;;;;;5.40;1.30;;;;;;;5.62;100.00;99141.34;5048163;28;20277;-75
2023/04/13 04:08:56;;;;;;;4.23;1.10;;;;;;;5.62;100.00;99146.59;5052226;28;20207;-75
2023/04/13 04:11:23;;;;;;;5.23;1.60;;;;;;;5.66;100.00;99155.41;5056779;28;20200;-75
2023/04/13 04:13:49;;;;;;;6.77;1.70;;;;;;;5.83;100.00;99158.22;5044690;28;20308;-75
2023/04/13 04:16:16;;;;;;;2.40;1.33;;;;;;;5.84;100.00;99160.88;5048333;28;20619;-75
2023/04/13 04:18:42;;;;;;;2.87;1.40;;;;;;;5.83;100.00;99156.47;5038033;28;20203;-74
2023/04/13 04:21:10;;;;;;;4.13;1.77;;;;;;;5.78;100.00;99157.28;5035385;28;20228;-74
2023/04/13 04:23:38;;;;;;;2.40;1.10;;;;;;;5.75;100.00;99157.25;5038316;28;20219;-74
2023/04/13 04:26:05;;;;;;;4.53;1.60;;;;;;;5.82;100.00;99156.47;5037904;28;20200;-74
2023/04/13 04:28:37;;;;;;;3.47;1.30;;;;;;;5.79;100.00;99162.56;5036809;28;20208;-75
2023/04/13 04:31:05;;;;;;;3.83;1.47;;;;;;;5.82;100.00;99162.59;5034384;28;20224;-75
2023/04/13 04:33:32;;;;;;;5.03;1.43;;;;;;;5.87;100.00;99166.16;5032946;28;20658;-74
2023/04/13 04:36:00;;;;;;;4.43;1.23;;;;;;;5.90;100.00;99157.47;5037823;28;20275;-75
2023/04/13 04:38:26;;;;;;;7.87;1.47;;;;;;;5.95;100.00;99169.78;5036885;28;22007;-74
2023/04/13 04:40:56;;;;;;;4.63;1.63;;;;;;;5.96;100.00;99171.56;5036402;28;20360;-74
2023/04/13 04:43:25;;;;;;;7.30;1.40;;;;;;;6.01;100.00;99171.63;5034958;28;20831;-74
2023/04/13 04:45:56;;;;;;;5.30;1.60;;;;;;;6.10;100.00;99166.47;5026251;28;20219;-75
2023/04/13 04:48:25;;;;;;;7.70;1.80;;;;;;;6.14;100.00;99175.28;5036959;28;20260;-75
2023/04/13 04:50:54;;;;;;;4.93;1.57;;;;;;;6.10;100.00;99162.97;5023721;28;20676;-74
2023/04/13 04:53:21;;;;;;;2.83;1.50;;;;;;;6.16;100.00;99166.53;5035020;28;20283;-74
2023/04/13 04:55:48;;;;;;;3.27;1.57;;;;;;;6.20;100.00;99176.22;5046321;28;20598;-74
2023/04/13 04:58:15;;;;;;;3.10;1.00;;;;;;;6.20;100.00;99164.81;5051482;28;20204;-76
2023/04/13 05:00:42;;;;;;;5.03;1.70;;;;;;;6.26;100.00;99175.41;5043039;28;20729;-73
2023/04/13 05:03:08;;;;;;;3.93;1.40;;;;;;;6.34;100.00;99173.72;5045495;28;20554;-74
2023/04/13 05:05:34;;;;;;;3.40;1.30;;;;;;;6.34;100.00;99176.38;5049163;28;20221;-73
2023/04/13 05:08:01;;;;;;;4.93;1.10;;;;;;;6.40;100.00;99176.44;5044441;28;20630;-74
2023/04/13 05:10:28;;;;;;;4.03;1.20;;;;;;;6.41;100.00;99180.84;5047047;28;20201;-74
2023/04/13 05:12:55;;;;;;;5.00;1.30;;;;;;;6.44;100.00;99182.63;5046541;28;20269;-74
2023/04/13 05:15:22;;;;;;;2.50;1.20;;;;;;;6.51;100.00;99185.34;5043430;28;20234;-75
2023/04/13 05:17:49;;;;;;;3.10;1.40;;;;;;;6.51;100.00;99187.06;5041740;28;20226;-74
2023/04/13 05:20:16;;;;;;;5.63;1.30;;;;;;;6.61;99.83;99186.28;5048597;28;20204;-74
2023/04/13 05:22:43;;;;;;;5.60;1.40;;;;;;;6.60;99.63;99189.78;5039457;28;20227;-74
2023/04/13 05:25:09;;;;;;;4.50;1.50;;;;;;;6.61;99.65;99194.19;5048120;28;20220;-74
2023/04/13 05:27:36;;;;;;;4.57;1.47;;;;;;;6.75;97.46;99207.47;5027998;28;20243;-74
2023/04/13 05:30:04;;;;;;;4.77;1.50;;;;;;;6.77;97.59;99208.34;5040050;28;20201;-75
2023/04/13 05:32:34;;;;;;;4.70;1.60;;;;;;;6.76;98.02;99210.09;5038200;28;20198;-72
2023/04/13 05:35:01;;;;;;;4.60;1.43;;;;;;;6.80;97.55;99205.75;5040564;28;20248;-72
2023/04/13 05:37:27;;;;;;;5.83;1.53;;;;;;;6.80;97.16;99211.91;5046369;28;20214;-73
2023/04/13 05:39:54;;;;;;;5.57;1.90;;;;;;;6.81;97.65;99213.69;5033978;28;20194;-73
2023/04/13 05:42:20;;;;;;;4.00;1.47;;;;;;;6.83;97.15;99221.59;5042508;28;20226;-74
2023/04/13 05:44:46;;;;;;;2.57;1.60;;;;;;;6.89;96.71;99224.28;5043227;28;20225;-73
2023/04/13 05:47:13;;;;;;;7.17;1.70;;;;;;;6.95;96.58;99216.44;5039631;28;20243;-72
2023/04/13 05:49:39;;;;;;;7.93;1.53;;;;;;;6.95;96.76;99220.81;5041452;28;20657;-71
2023/04/13 05:52:09;;;;;;;5.03;1.67;;;;;;;7.01;96.03;99226.13;5027776;28;20577;-71
2023/04/13 05:54:35;;;;;;;5.17;1.53;;;;;;;7.04;95.41;99215.63;5025640;28;20279;-71
2023/04/13 05:57:02;;;;;;;5.30;1.47;;;;;;;7.08;95.05;99222.69;5027304;28;20205;-71
2023/04/13 05:59:28;;;;;;;4.03;1.40;;;;;;;7.16;94.53;99223.63;5045627;28;20255;-71
2023/04/13 06:01:54;;;;;;;6.03;1.50;;;;;;;7.18;94.71;99221.88;5041703;28;20216;-70
2023/04/13 06:04:21;;;;;;;4.73;1.70;;;;;;;7.22;94.03;99234.22;5026057;28;20243;-72
2023/04/13 06:06:48;;;;;;;6.57;1.40;;;;;;;7.33;93.48;99232.56;5025750;28;20199;-70
2023/04/13 06:09:15;;;;;;;3.53;1.70;;;;;;;7.29;94.21;99245.69;5033740;28;20206;-72
2023/04/13 06:11:42;;;;;;;6.17;1.93;;;;;;;7.32;94.93;99245.72;5045865;28;20680;-70
2023/04/13 06:14:08;;;;;;;4.87;1.57;;;;;;;7.35;95.01;99246.63;5043126;28;20225;-71
2023/04/13 06:16:34;;;;;;;4.17;1.40;;;;;;;7.36;95.08;99244.88;5036733;28;20236;-71
2023/04/13 06:19:01;;;;;;;6.23;1.50;;;;;;;7.45;93.61;99251.06;5029047;28;20233;-72
2023/04/13 06:21:29;;;;;;;9.33;2.33;;;;;;;7.54;93.64;99248.50;5044682;28;20228;-72
2023/04/13 06:23:55;;;;;;;10.23;2.30;;;;;;;7.64;93.08;99252.09;5046640;28;20733;-72
2023/04/13 06:26:22;;;;;;;6.40;1.90;;;;;;;7.76;92.25;99259.19;5043389;28;20256;-72
2023/04/13 06:28:48;;;;;;;5.70;1.67;;;;;;;7.79;92.65;99257.47;5043851;28;20675;-72
2023/04/13 06:31:15;;;;;;;4.00;1.60;;;;;;;7.81;91.98;99261.00;5048107;28;20205;-72
2023/04/13 06:33:42;;;;;;;7.80;1.80;;;;;;;7.89;92.21;99265.41;5044132;28;20493;-71
2023/04/13 06:36:08;;;;;;;4.83;1.40;;;;;;;7.94;91.51;99268.97;5041532;28;20208;-72
2023/04/13 06:38:35;;;;;;;6.47;1.70;;;;;;;7.90;92.23;99269.81;5045652;28;20241;-71
2023/04/13 06:41:01;;;;;;;5.63;1.70;;;;;;;7.88;91.96;99277.72;5043914;28;20203;-72
2023/04/13 06:43:28;;;;;;;4.57;1.70;;;;;;;7.77;93.08;99272.38;5043007;28;20206;-72
2023/04/13 06:46:00;;;;;;;5.63;1.77;;;;;;;7.85;93.07;99277.69;5041153;28;20245;-73
2023/04/13 06:48:27;;;;;;;7.53;2.00;;;;;;;7.86;92.55;99285.63;5042127;28;20312;-72
2023/04/13 06:50:57;;;;;;;6.03;1.50;;;;;;;7.94;91.71;99284.78;5040140;28;20210;-72
2023/04/13 06:53:24;;;;;;;6.83;1.50;;;;;;;8.04;91.88;99281.34;5043684;28;20202;-72
2023/04/13 06:55:51;;;;;;;5.27;1.50;;;;;;;8.17;90.48;99281.41;5043618;28;20607;-72
2023/04/13 06:58:17;;;;;;;6.43;1.50;;;;;;;8.25;90.83;99280.56;5043413;28;20197;-72
2023/04/13 07:00:43;;;;;;;5.27;1.63;;;;;;;8.38;89.80;99285.91;5040387;28;20276;-72
2023/04/13 07:03:10;;;;;;;6.07;1.50;;;;;;;8.43;89.63;99292.13;5043963;28;21013;-73
2023/04/13 07:05:37;;;;;;;7.10;1.40;;;;;;;8.43;89.47;99297.41;5045239;28;20222;-73
2023/04/13 07:08:05;;;;;;;8.23;1.50;;;;;;;8.57;88.96;99297.44;5044525;28;20715;-75
2023/04/13 07:10:31;;;;;;;4.00;1.37;;;;;;;8.65;88.19;99289.56;5044769;28;20201;-74
2023/04/13 07:12:58;;;;;;;6.70;1.70;;;;;;;8.91;88.34;99290.53;5049049;28;20206;-75
2023/04/13 07:15:24;;;;;;;4.87;1.50;;;;;;;9.19;85.77;99291.44;5044947;28;20211;-75
2023/04/13 07:17:51;;;;;;;5.30;1.43;;;;;;;9.11;86.30;99301.09;5044599;28;20296;-77
2023/04/13 07:20:17;;;;;;;7.40;1.60;;;;;;;8.96;86.03;99295.81;5029833;28;20280;-75
2023/04/13 07:22:44;;;;;;;5.70;1.80;;;;;;;8.81;86.49;99298.41;5049613;28;20227;-72
2023/04/13 07:25:10;;;;;;;4.53;1.40;;;;;;;8.80;86.37;99297.50;5053593;28;20243;-73
2023/04/13 07:27:36;;;;;;;5.80;1.70;;;;;;;8.92;86.93;99299.31;5031330;28;20198;-72
2023/04/13 07:30:03;;;;;;;4.37;2.00;;;;;;;8.93;85.29;99295.81;5037500;28;20237;-73
2023/04/13 07:32:30;;;;;;;3.90;1.50;;;;;;;8.94;87.40;99306.38;5052141;28;20225;-73
2023/04/13 07:35:00;;;;;;;6.83;1.67;;;;;;;9.06;87.01;99319.59;5050710;28;20627;-73
2023/04/13 07:37:26;;;;;;;3.60;1.50;;;;;;;8.96;87.41;99307.25;5051356;28;20692;-72
2023/04/13 07:39:53;;;;;;;8.90;1.43;;;;;;;8.96;86.18;99314.28;5052019;28;20199;-71
2023/04/13 07:42:19;;;;;;;3.07;1.40;;;;;;;9.15;86.12;99320.47;5042091;28;20298;-73
2023/04/13 07:44:46;;;;;;;8.50;1.83;;;;;;;9.29;84.98;99313.47;5044512;28;20271;-73
2023/04/13 07:47:12;;;;;;;4.80;1.87;;;;;;;9.48;84.61;99309.06;5054729;28;20195;-72
2023/04/13 07:49:39;;;;;;;5.23;1.50;;;;;;;9.46;84.78;99314.34;5034973;28;20195;-72
2023/04/13 07:52:05;;;;;;;6.13;1.63;;;;;;;9.67;83.60;99311.72;5056285;28;20230;-73
2023/04/13 07:54:33;;;;;;;5.43;2.20;;;;;;;9.55;84.11;99322.28;5057414;28;20239;-73
2023/04/13 07:57:01;;;;;;;4.40;1.83;;;;;;;9.32;84.35;99324.94;5048510;28;20617;-73
2023/04/13 07:59:28;;;;;;;4.83;1.70;;;;;;;9.14;86.04;99334.56;5048844;28;20203;-72
2023/04/13 08:01:54;;;;;;;3.87;1.50;;;;;;;9.15;85.94;99342.50;5043082;28;20222;-73
2023/04/13 08:04:21;;;;;;;4.23;1.47;;;;;;;9.11;86.49;99344.25;5039389;28;20229;-73
2023/04/13 08:06:48;;;;;;;4.83;1.67;;;;;;;9.04;86.33;99353.03;5042190;28;20203;-73
2023/04/13 08:09:14;;;;;;;3.60;1.53;;;;;;;9.10;85.81;99355.69;5036836;28;20566;-71
2023/04/13 08:11:41;;;;;;;4.40;1.77;;;;;;;9.22;86.17;99354.84;5039466;28;20196;-72
2023/04/13 08:14:08;;;;;;;6.57;1.77;;;;;;;9.29;85.26;99348.69;5039410;28;20327;-73
2023/04/13 08:16:35;;;;;;;4.17;1.53;;;;;;;9.42;84.91;99354.88;5028454;28;20249;-71
2023/04/13 08:19:01;;;;;;;4.47;1.83;;;;;;;9.35;84.96;99356.63;5044299;28;20251;-72
2023/04/13 08:21:28;;;;;;;6.15;1.50;;;;;;;9.45;84.28;99354.88;5044945;28;20195;-72
2023/04/13 08:23:55;;;;;;;4.10;1.53;;;;;;;9.55;85.59;99358.41;5048712;28;20340;-72
2023/04/13 08:26:22;;;;;;;3.87;1.40;;;;;;;9.70;84.17;99366.38;5041427;28;20221;-75
2023/04/13 08:28:48;;;;;;;6.30;1.80;;;;;;;9.40;84.72;99370.72;5045136;28;20403;-73
2023/04/13 08:31:15;;;;;;;3.00;1.30;;;;;;;9.42;85.71;99362.81;5043241;28;20704;-73
2023/04/13 08:33:42;;;;;;;6.00;1.80;;;;;;;9.30;85.52;99379.53;5047373;28;20238;-73
2023/04/13 08:36:09;;;;;;;6.40;2.13;;;;;;;9.33;88.66;99376.00;5051485;28;20202;-71
2023/04/13 08:38:35;;;;;;;3.43;1.60;;;;;;;9.34;88.66;99383.94;5036836;28;20211;-73
2023/04/13 08:41:02;;;;;;;6.10;1.47;;;;;;;9.24;88.58;99386.56;5026533;28;20699;-73
2023/04/13 08:43:32;;;;;;;4.73;1.63;;;;;;;9.28;90.84;99383.06;5023748;28;20276;-74
2023/04/13 08:45:59;;;;;;;3.47;1.30;;;;;;;9.28;90.79;99383.06;5028470;28;20245;-74
2023/04/13 08:48:26;;;;;;;6.67;1.60;;;;;;;9.34;91.42;99396.28;5051453;28;20198;-74
2023/04/13 08:50:57;;;;;;;3.93;1.50;;;;;;;9.45;89.97;99383.06;5055761;28;20228;-74
2023/04/13 08:53:23;;;;;;;3.73;1.40;;;;;;;9.54;88.89;99383.97;5038200;28;20193;-74
2023/04/13 08:55:51;;;;;;;3.73;1.40;;;;;;;9.54;87.96;99389.25;5041720;28;20262;-74
2023/04/13 08:58:19;;;;;;;3.77;1.60;;;;;;;9.56;89.87;99387.47;5055103;28;20659;-73
2023/04/13 09:00:48;;;;;;;2.67;1.30;;;;;;;9.46;89.18;99396.28;5049145;28;20200;-74
2023/04/13 09:03:22;;;;;;;3.73;1.37;;;;;;;9.58;89.34;99391.00;5049808;28;20254;-73
2023/04/13 09:06:06;;;;;;;3.23;1.60;;;;;;;9.52;89.66;99393.66;5031102;28;20230;-70
2023/04/13 09:08:36;;;;;;;2.00;1.20;;;;;;;9.58;87.81;99398.06;5044902;28;20203;-70
2023/04/13 09:11:02;;;;;;;2.77;1.60;;;;;;;9.54;86.54;99391.88;5053153;28;20290;-71
2023/04/13 09:13:28;;;;;;;3.93;1.20;;;;;;;9.52;86.26;99392.75;5048204;28;20288;-71
2023/04/13 09:15:55;;;;;;;1.50;1.10;;;;;;;9.63;85.22;99398.97;5046862;28;20207;-72
2023/04/13 09:18:22;;;;;;;2.83;1.33;;;;;;;9.57;84.79;99393.66;5045958;28;20257;-71
2023/04/13 09:20:58;;;;;;;1.70;1.10;;;;;;;9.79;83.65;99398.09;5041407;28;20578;-72
2023/04/13 09:23:25;;;;;;;1.53;0.93;;;;;;;10.00;82.67;99386.63;5050064;28;20220;-73
2023/04/13 09:26:08;;;;;;;2.70;1.00;;;;;;;10.30;80.39;99383.97;5029110;28;20215;-72
2023/04/13 09:28:48;;;;;;;2.30;1.30;;;;;;;10.56;79.05;99391.00;5045644;28;20544;-72
2023/04/13 09:31:15;;;;;;;5.77;1.30;;;;;;;10.72;79.05;99391.81;5052762;28;20580;-71
2023/04/13 09:33:47;;;;;;;2.00;1.00;;;;;;;10.72;77.78;99394.47;5040720;28;20198;-74
2023/04/13 09:36:16;;;;;;;1.77;0.90;;;;;;;10.60;78.92;99398.91;5045658;28;20198;-72
2023/04/13 09:38:46;;;;;;;2.13;1.00;;;;;;;10.69;78.43;99411.25;5050452;28;20196;-72
2023/04/13 09:41:12;;;;;;;1.30;1.00;;;;;;;10.43;80.55;99413.97;5053849;28;20226;-73
2023/04/13 09:43:39;;;;;;;3.10;1.23;;;;;;;10.36;82.99;99413.06;5028794;28;20251;-71
2023/04/13 09:46:12;;;;;;;1.67;1.03;;;;;;;10.59;85.16;99418.34;5047786;28;20273;-73
2023/04/13 09:48:39;;;;;;;4.60;1.10;;;;;;;10.74;87.26;99419.16;5046239;28;20196;-71
2023/04/13 09:51:07;;;;;;;1.77;1.00;;;;;;;10.49;85.60;99415.72;5045986;28;20670;-71
2023/04/13 09:53:46;;;;;;;2.23;1.20;;;;;;;10.28;85.17;99409.56;5025486;28;20540;-70
2023/04/13 09:56:12;;;;;;;1.73;1.00;;;;;;;10.01;86.27;99417.50;5030604;28;20215;-72
2023/04/13 09:58:43;;;;;;;2.03;0.90;;;;;;;9.99;88.24;99420.13;5046959;28;20196;-70
2023/04/13 10:01:10;;;;;;;1.90;1.10;;;;;;;10.24;86.86;99418.38;5042267;28;20257;-72
2023/04/13 10:03:37;;;;;;;2.27;1.03;;;;;;;10.60;84.92;99412.16;5049474;28;20215;-70
2023/04/13 10:06:06;;;;;;;3.03;1.03;;;;;;;11.24;82.13;99406.63;5038870;28;20210;-73
2023/04/13 10:08:37;;;;;;;2.33;1.13;;;;;;;11.70;78.91;99409.00;5032421;28;20262;-73
2023/04/13 10:11:10;;;;;;;3.60;1.20;;;;;;;11.74;77.98;99416.03;5052947;28;20197;-73
2023/04/13 10:13:46;;;;;;;1.43;0.90;;;;;;;12.10;75.31;99406.94;5055062;28;20776;-73
2023/04/13 10:16:49;;;;;;;2.27;1.13;;;;;;;12.63;75.00;99407.31;5051652;28;20205;-73
2023/04/13 10:19:32;;;;;;;3.37;1.13;;;;;;;13.33;72.84;99411.81;4941501;28;20295;-73
2023/04/13 10:21:58;;;;;;;1.23;1.00;;;;;;;13.83;67.88;99397.78;5028050;28;20208;-73
2023/04/13 10:24:27;;;;;;;2.70;1.17;;;;;;;14.00;68.28;99400.16;5040312;28;20244;-73
2023/04/13 10:26:55;;;;;;;1.73;0.90;;;;;;;13.94;65.67;99406.47;5040238;28;20206;-76
2023/04/13 10:29:29;;;;;;;2.17;1.03;;;;;;;13.55;67.39;99410.59;5038350;28;20207;-75
2023/04/13 10:32:01;;;;;;;2.03;0.83;;;;;;;13.24;66.93;99419.94;5038138;28;20211;-74
2023/04/13 10:34:30;;;;;;;1.80;1.20;;;;;;;13.10;66.80;99417.41;5016937;28;21394;-74
2023/04/13 10:37:01;;;;;;;2.77;1.30;;;;;;;13.58;66.15;99410.56;5031435;28;20197;-73
2023/04/13 10:39:31;;;;;;;2.40;1.43;;;;;;;14.40;65.68;99411.00;5027477;28;21035;-76
2023/04/13 10:42:08;;;;;;;2.57;1.40;;;;;;;14.93;61.75;99401.19;5043075;28;20700;-80
2023/04/13 10:44:42;;;;;;;1.87;1.00;;;;;;;15.15;58.12;99413.16;5041206;28;20268;-77
2023/04/13 10:47:10;;;;;;;2.40;1.40;;;;;;;14.82;58.50;99406.72;5039139;28;20210;-74
2023/04/13 10:49:36;;;;;;;4.53;1.33;;;;;;;13.48;63.26;99423.13;5040795;28;20202;-74
2023/04/13 10:52:03;;;;;;;2.73;0.80;;;;;;;12.40;73.74;99428.78;5039401;28;20202;-80
2023/04/13 10:54:30;;;;;;;1.87;0.80;;;;;;;11.72;83.05;99440.81;5039069;28;20254;-72
2023/04/13 10:57:00;;;;;;;2.00;0.90;;;;;;;11.34;85.93;99433.06;5039642;28;20282;-72
2023/04/13 10:59:48;;;;;;;1.40;1.10;;;;;;;11.35;88.82;99421.59;5042711;28;21559;-70
2023/04/13 11:02:28;;;;;;;2.30;0.90;;;;;;;11.66;87.34;99424.94;5039783;28;20218;-70
2023/04/13 11:04:56;;;;;;;2.87;1.03;;;;;;;12.08;83.58;99424.66;5039551;28;20231;-70
2023/04/13 11:07:24;;;;;;;2.70;1.20;;;;;;;12.93;80.03;99416.72;5047702;28;20198;-71
2023/04/13 11:09:56;;;;;;;2.67;1.20;;;;;;;13.30;79.26;99422.50;5046843;28;20473;-72
2023/04/13 11:12:28;;;;;;;1.57;0.87;;;;;;;13.74;75.12;99417.44;5048239;28;20216;-72
2023/04/13 11:14:55;;;;;;;3.10;1.00;;;;;;;13.73;73.38;99409.47;5025080;28;22143;-74
2023/04/13 11:17:21;;;;;;;2.47;0.90;;;;;;;13.88;73.77;99414.56;5054508;28;20252;-77
2023/04/13 11:19:50;;;;;;;1.07;0.70;;;;;;;13.75;73.46;99411.22;5050065;28;20240;-79
2023/04/13 11:22:18;;;;;;;2.33;1.20;;;;;;;13.57;71.63;99410.59;5046330;28;20277;-81
2023/04/13 11:24:46;;;;;;;2.57;0.87;;;;;;;13.38;70.62;99402.88;5053927;28;20215;-78
2023/04/13 11:27:21;;;;;;;1.83;1.00;;;;;;;13.45;70.80;99399.22;5056529;28;20201;-79
2023/04/13 11:30:05;;;;;;;0.80;0.63;;;;;;;13.45;65.69;99388.59;5047730;28;20202;-78
2023/04/13 11:32:42;;;;;;;1.37;0.90;;;;;;;13.47;66.97;99388.56;5045774;28;20430;-77
2023/04/13 11:35:11;;;;;;;2.93;1.13;;;;;;;13.60;66.80;99390.13;5043714;28;20232;-74
2023/04/13 11:37:39;;;;;;;2.63;0.90;;;;;;;13.73;63.49;99394.41;5047203;28;20206;-78
2023/04/13 11:40:16;;;;;;;2.10;0.77;;;;;;;14.04;62.18;99391.25;5045682;28;20670;-81
2023/04/13 11:42:46;;;;;;;4.00;1.13;;;;;;;13.99;63.06;99383.31;5046518;28;20222;-81